Terminal Aerodrome Forecast
Issued by NWS Twin Cities, MN

Home | Current Version | Previous Version | Graphics & Text | Print | Product List | Glossary On
Versions: 1 2 3 4 5 6 7 8 9 10 11 12 13 14 15 16 17 18 19 20
000
FTUS43 KMPX 242037 AAA
TAFEAU
TAF AMD
KEAU 242037Z 2421/2518 23009KT P6SM SCT030 BKN050
     FM250000 12003KT P6SM BKN150
     FM251600 12010KT 5SM -SHRA OVC050=

USA.gov is the U.S. government's official web portal to all federal, state and local government web resources and services.